sensor_id;sensor_type;location;lat;lon;timestamp;temperature;humidity
9772;DHT22;4925;52.588;13.370;2023-04-24T00:02:23;14.00;99.90
9772;DHT22;4925;52.588;13.370;2023-04-24T00:04:49;13.90;99.90
9772;DHT22;4925;52.588;13.370;2023-04-24T00:07:15;13.90;99.90
9772;DHT22;4925;52.588;13.370;2023-04-24T00:09:42;13.90;99.90
9772;DHT22;4925;52.588;13.370;2023-04-24T00:12:09;13.90;99.90
9772;DHT22;4925;52.588;13.370;2023-04-24T00:14:35;13.90;99.90
9772;DHT22;4925;52.588;13.370;2023-04-24T00:17:01;13.90;99.90
9772;DHT22;4925;52.588;13.370;2023-04-24T00:19:28;13.90;99.90
9772;DHT22;4925;52.588;13.370;2023-04-24T00:21:54;13.90;99.90
9772;DHT22;4925;52.588;13.370;2023-04-24T00:24:20;13.90;99.90
9772;DHT22;4925;52.588;13.370;2023-04-24T00:26:46;13.90;99.90
9772;DHT22;4925;52.588;13.370;2023-04-24T00:29:12;13.90;99.90
9772;DHT22;4925;52.588;13.370;2023-04-24T00:31:38;13.90;99.90
9772;DHT22;4925;52.588;13.370;2023-04-24T00:34:03;13.90;99.90
9772;DHT22;4925;52.588;13.370;2023-04-24T00:36:30;13.90;99.90
9772;DHT22;4925;52.588;13.370;2023-04-24T00:38:56;13.90;99.90
9772;DHT22;4925;52.588;13.370;2023-04-24T00:41:23;13.90;99.90
9772;DHT22;4925;52.588;13.370;2023-04-24T00:43:50;13.90;99.90
9772;DHT22;4925;52.588;13.370;2023-04-24T00:46:16;13.90;99.90
9772;DHT22;4925;52.588;13.370;2023-04-24T00:48:43;13.90;99.90
9772;DHT22;4925;52.588;13.370;2023-04-24T00:51:08;13.90;99.90
9772;DHT22;4925;52.588;13.370;2023-04-24T00:53:34;13.90;99.90
9772;DHT22;4925;52.588;13.370;2023-04-24T00:56:00;13.90;99.90
9772;DHT22;4925;52.588;13.370;2023-04-24T00:58:27;13.90;99.90
9772;DHT22;4925;52.588;13.370;2023-04-24T01:00:54;13.90;99.90
9772;DHT22;4925;52.588;13.370;2023-04-24T01:03:22;13.90;99.90
9772;DHT22;4925;52.588;13.370;2023-04-24T01:05:49;13.80;99.90
9772;DHT22;4925;52.588;13.370;2023-04-24T01:08:16;13.80;99.90
9772;DHT22;4925;52.588;13.370;2023-04-24T01:10:43;13.80;99.90
9772;DHT22;4925;52.588;13.370;2023-04-24T01:13:09;13.80;99.90
9772;DHT22;4925;52.588;13.370;2023-04-24T01:15:35;13.70;99.90
9772;DHT22;4925;52.588;13.370;2023-04-24T01:18:02;13.60;99.90
9772;DHT22;4925;52.588;13.370;2023-04-24T01:20:27;13.50;99.90
9772;DHT22;4925;52.588;13.370;2023-04-24T01:22:57;13.50;99.90
9772;DHT22;4925;52.588;13.370;2023-04-24T01:25:23;13.40;99.90
9772;DHT22;4925;52.588;13.370;2023-04-24T01:27:50;13.20;99.90
9772;DHT22;4925;52.588;13.370;2023-04-24T01:30:17;13.30;99.90
9772;DHT22;4925;52.588;13.370;2023-04-24T01:32:43;13.40;99.90
9772;DHT22;4925;52.588;13.370;2023-04-24T01:35:10;13.40;99.90
9772;DHT22;4925;52.588;13.370;2023-04-24T01:37:36;13.40;99.90
9772;DHT22;4925;52.588;13.370;2023-04-24T01:40:07;13.50;99.90
9772;DHT22;4925;52.588;13.370;2023-04-24T01:42:35;13.50;99.90
9772;DHT22;4925;52.588;13.370;2023-04-24T01:45:02;13.20;99.90
9772;DHT22;4925;52.588;13.370;2023-04-24T01:47:30;13.30;99.90
9772;DHT22;4925;52.588;13.370;2023-04-24T01:49:56;13.40;99.90
9772;DHT22;4925;52.588;13.370;2023-04-24T01:52:22;13.50;99.90
9772;DHT22;4925;52.588;13.370;2023-04-24T01:54:48;13.70;99.90
9772;DHT22;4925;52.588;13.370;2023-04-24T01:57:14;13.70;99.90
9772;DHT22;4925;52.588;13.370;2023-04-24T01:59:40;13.80;99.90
9772;DHT22;4925;52.588;13.370;2023-04-24T02:02:06;13.90;99.90
9772;DHT22;4925;52.588;13.370;2023-04-24T02:04:31;13.90;99.90
9772;DHT22;4925;52.588;13.370;2023-04-24T02:06:57;14.00;99.90
9772;DHT22;4925;52.588;13.370;2023-04-24T02:09:23;14.00;99.90
9772;DHT22;4925;52.588;13.370;2023-04-24T02:11:48;14.00;99.90
9772;DHT22;4925;52.588;13.370;2023-04-24T02:14:14;13.80;99.90
9772;DHT22;4925;52.588;13.370;2023-04-24T02:16:40;13.70;99.90
9772;DHT22;4925;52.588;13.370;2023-04-24T02:19:05;13.80;99.90
9772;DHT22;4925;52.588;13.370;2023-04-24T02:21:31;13.80;99.90
9772;DHT22;4925;52.588;13.370;2023-04-24T02:23:58;13.80;99.90
9772;DHT22;4925;52.588;13.370;2023-04-24T02:26:23;13.90;99.90
9772;DHT22;4925;52.588;13.370;2023-04-24T02:28:50;13.90;99.90
9772;DHT22;4925;52.588;13.370;2023-04-24T02:31:15;13.90;99.90
9772;DHT22;4925;52.588;13.370;2023-04-24T02:33:41;13.90;99.90
9772;DHT22;4925;52.588;13.370;2023-04-24T02:36:07;13.90;99.90
9772;DHT22;4925;52.588;13.370;2023-04-24T02:38:33;13.90;99.90
9772;DHT22;4925;52.588;13.370;2023-04-24T02:40:59;13.90;99.90
9772;DHT22;4925;52.588;13.370;2023-04-24T02:43:26;13.80;99.90
9772;DHT22;4925;52.588;13.370;2023-04-24T02:45:51;13.80;99.90
9772;DHT22;4925;52.588;13.370;2023-04-24T02:48:17;13.80;99.90
9772;DHT22;4925;52.588;13.370;2023-04-24T02:50:44;13.80;99.90
9772;DHT22;4925;52.588;13.370;2023-04-24T02:53:09;13.90;99.90
9772;DHT22;4925;52.588;13.370;2023-04-24T02:55:35;13.90;99.90
9772;DHT22;4925;52.588;13.370;2023-04-24T02:58:01;14.00;99.90
9772;DHT22;4925;52.588;13.370;2023-04-24T03:00:27;13.90;99.90
9772;DHT22;4925;52.588;13.370;2023-04-24T03:02:52;13.90;99.90
9772;DHT22;4925;52.588;13.370;2023-04-24T03:05:18;13.90;99.90
9772;DHT22;4925;52.588;13.370;2023-04-24T03:07:44;13.90;99.90
9772;DHT22;4925;52.588;13.370;2023-04-24T03:10:10;13.90;99.90
9772;DHT22;4925;52.588;13.370;2023-04-24T03:12:36;13.90;99.90
9772;DHT22;4925;52.588;13.370;2023-04-24T03:15:02;13.80;99.90
9772;DHT22;4925;52.588;13.370;2023-04-24T03:17:28;13.80;99.90
9772;DHT22;4925;52.588;13.370;2023-04-24T03:19:54;13.80;99.90
9772;DHT22;4925;52.588;13.370;2023-04-24T03:22:19;13.70;99.90
9772;DHT22;4925;52.588;13.370;2023-04-24T03:24:45;13.60;99.90
9772;DHT22;4925;52.588;13.370;2023-04-24T03:27:11;13.60;99.90
9772;DHT22;4925;52.588;13.370;2023-04-24T03:29:36;13.70;99.90
9772;DHT22;4925;52.588;13.370;2023-04-24T03:32:02;13.60;99.90
9772;DHT22;4925;52.588;13.370;2023-04-24T03:34:28;13.50;99.90
9772;DHT22;4925;52.588;13.370;2023-04-24T03:36:53;13.60;99.90
9772;DHT22;4925;52.588;13.370;2023-04-24T03:39:19;13.50;99.90
9772;DHT22;4925;52.588;13.370;2023-04-24T03:41:45;13.50;99.90
9772;DHT22;4925;52.588;13.370;2023-04-24T03:44:10;13.60;99.90
9772;DHT22;4925;52.588;13.370;2023-04-24T03:46:36;13.50;99.90
9772;DHT22;4925;52.588;13.370;2023-04-24T03:49:01;13.60;99.90
9772;DHT22;4925;52.588;13.370;2023-04-24T03:51:27;13.50;99.90
9772;DHT22;4925;52.588;13.370;2023-04-24T03:53:53;13.50;99.90
9772;DHT22;4925;52.588;13.370;2023-04-24T03:56:19;13.50;99.90
9772;DHT22;4925;52.588;13.370;2023-04-24T03:58:45;13.60;99.90
9772;DHT22;4925;52.588;13.370;2023-04-24T04:01:11;13.60;99.90
9772;DHT22;4925;52.588;13.370;2023-04-24T04:03:37;13.60;99.90
9772;DHT22;4925;52.588;13.370;2023-04-24T04:06:03;13.80;99.90
9772;DHT22;4925;52.588;13.370;2023-04-24T04:08:29;13.70;99.90
9772;DHT22;4925;52.588;13.370;2023-04-24T04:10:54;13.70;99.90
9772;DHT22;4925;52.588;13.370;2023-04-24T04:13:20;13.80;99.90
9772;DHT22;4925;52.588;13.370;2023-04-24T04:15:46;13.60;99.90
9772;DHT22;4925;52.588;13.370;2023-04-24T04:18:11;13.70;99.90
9772;DHT22;4925;52.588;13.370;2023-04-24T04:20:37;13.70;99.90
9772;DHT22;4925;52.588;13.370;2023-04-24T04:23:03;13.80;99.90
9772;DHT22;4925;52.588;13.370;2023-04-24T04:25:28;13.80;99.90
9772;DHT22;4925;52.588;13.370;2023-04-24T04:27:55;13.80;99.90
9772;DHT22;4925;52.588;13.370;2023-04-24T04:30:21;13.80;99.90
9772;DHT22;4925;52.588;13.370;2023-04-24T04:32:47;13.80;99.90
9772;DHT22;4925;52.588;13.370;2023-04-24T04:35:13;13.70;99.90
9772;DHT22;4925;52.588;13.370;2023-04-24T04:37:38;13.70;99.90
9772;DHT22;4925;52.588;13.370;2023-04-24T04:40:05;13.70;99.90
9772;DHT22;4925;52.588;13.370;2023-04-24T04:42:32;13.70;99.90
9772;DHT22;4925;52.588;13.370;2023-04-24T04:45:08;13.70;99.90
9772;DHT22;4925;52.588;13.370;2023-04-24T04:47:34;13.80;99.90
9772;DHT22;4925;52.588;13.370;2023-04-24T04:50:00;13.80;99.90
9772;DHT22;4925;52.588;13.370;2023-04-24T04:52:26;13.70;99.90
9772;DHT22;4925;52.588;13.370;2023-04-24T04:54:52;13.80;99.90
9772;DHT22;4925;52.588;13.370;2023-04-24T04:57:18;13.80;99.90
9772;DHT22;4925;52.588;13.370;2023-04-24T04:59:44;13.80;99.90
9772;DHT22;4925;52.588;13.370;2023-04-24T05:02:10;13.80;99.90
9772;DHT22;4925;52.588;13.370;2023-04-24T05:04:35;13.80;99.90
9772;DHT22;4925;52.588;13.370;2023-04-24T05:07:01;13.80;99.90
9772;DHT22;4925;52.588;13.370;2023-04-24T05:09:27;13.80;99.90
9772;DHT22;4925;52.588;13.370;2023-04-24T05:11:55;13.90;99.90
9772;DHT22;4925;52.588;13.370;2023-04-24T05:14:21;13.90;99.90
9772;DHT22;4925;52.588;13.370;2023-04-24T05:16:47;13.90;99.90
9772;DHT22;4925;52.588;13.370;2023-04-24T05:19:13;13.80;99.90
9772;DHT22;4925;52.588;13.370;2023-04-24T05:21:40;13.80;99.90
9772;DHT22;4925;52.588;13.370;2023-04-24T05:24:06;13.90;99.90
9772;DHT22;4925;52.588;13.370;2023-04-24T05:26:32;13.80;99.90
9772;DHT22;4925;52.588;13.370;2023-04-24T05:28:58;13.80;99.90
9772;DHT22;4925;52.588;13.370;2023-04-24T05:31:23;13.80;99.90
9772;DHT22;4925;52.588;13.370;2023-04-24T05:33:49;13.80;99.90
9772;DHT22;4925;52.588;13.370;2023-04-24T05:36:15;13.80;99.90
9772;DHT22;4925;52.588;13.370;2023-04-24T05:38:41;13.80;99.90
9772;DHT22;4925;52.588;13.370;2023-04-24T05:41:06;13.80;99.90
9772;DHT22;4925;52.588;13.370;2023-04-24T05:43:32;13.70;99.90
9772;DHT22;4925;52.588;13.370;2023-04-24T05:45:57;13.80;99.90
9772;DHT22;4925;52.588;13.370;2023-04-24T05:48:23;13.80;99.90
9772;DHT22;4925;52.588;13.370;2023-04-24T05:50:49;13.90;99.90
9772;DHT22;4925;52.588;13.370;2023-04-24T05:53:15;14.00;99.90
9772;DHT22;4925;52.588;13.370;2023-04-24T05:55:41;14.00;99.90
9772;DHT22;4925;52.588;13.370;2023-04-24T05:58:06;13.90;99.90
9772;DHT22;4925;52.588;13.370;2023-04-24T06:00:32;14.00;99.90
9772;DHT22;4925;52.588;13.370;2023-04-24T06:03:00;14.10;99.90
9772;DHT22;4925;52.588;13.370;2023-04-24T06:05:25;14.00;99.90
9772;DHT22;4925;52.588;13.370;2023-04-24T06:07:52;13.80;99.90
9772;DHT22;4925;52.588;13.370;2023-04-24T06:10:17;13.80;99.90
9772;DHT22;4925;52.588;13.370;2023-04-24T06:12:43;13.80;99.90
9772;DHT22;4925;52.588;13.370;2023-04-24T06:15:09;13.80;99.90
9772;DHT22;4925;52.588;13.370;2023-04-24T06:17:35;13.80;99.90
9772;DHT22;4925;52.588;13.370;2023-04-24T06:20:01;13.80;99.90
9772;DHT22;4925;52.588;13.370;2023-04-24T06:22:29;13.90;99.90
9772;DHT22;4925;52.588;13.370;2023-04-24T06:24:55;13.90;99.90
9772;DHT22;4925;52.588;13.370;2023-04-24T06:27:20;13.80;99.90
9772;DHT22;4925;52.588;13.370;2023-04-24T06:29:46;13.90;99.90
9772;DHT22;4925;52.588;13.370;2023-04-24T06:32:18;14.00;99.90
9772;DHT22;4925;52.588;13.370;2023-04-24T06:34:43;14.10;99.90
9772;DHT22;4925;52.588;13.370;2023-04-24T06:37:09;14.10;99.90
9772;DHT22;4925;52.588;13.370;2023-04-24T06:39:35;14.10;99.90
9772;DHT22;4925;52.588;13.370;2023-04-24T06:42:00;14.20;99.90
9772;DHT22;4925;52.588;13.370;2023-04-24T06:44:26;14.40;99.90
9772;DHT22;4925;52.588;13.370;2023-04-24T06:46:52;14.40;91.00
9772;DHT22;4925;52.588;13.370;2023-04-24T06:49:17;14.40;98.00
9772;DHT22;4925;52.588;13.370;2023-04-24T06:51:43;14.40;79.20
9772;DHT22;4925;52.588;13.370;2023-04-24T06:54:09;14.50;86.00
9772;DHT22;4925;52.588;13.370;2023-04-24T06:56:35;14.70;58.90
9772;DHT22;4925;52.588;13.370;2023-04-24T06:59:01;14.90;29.40
9772;DHT22;4925;52.588;13.370;2023-04-24T07:01:26;14.80;8.80
9772;DHT22;4925;52.588;13.370;2023-04-24T07:03:52;14.90;3.60
9772;DHT22;4925;52.588;13.370;2023-04-24T07:06:18;15.10;1.00
9772;DHT22;4925;52.588;13.370;2023-04-24T07:08:46;15.10;1.00
9772;DHT22;4925;52.588;13.370;2023-04-24T07:11:12;15.10;1.00
9772;DHT22;4925;52.588;13.370;2023-04-24T07:13:38;15.10;1.00
9772;DHT22;4925;52.588;13.370;2023-04-24T07:16:07;15.30;1.00
9772;DHT22;4925;52.588;13.370;2023-04-24T07:18:33;15.30;46.80
9772;DHT22;4925;52.588;13.370;2023-04-24T07:20:59;15.40;1.00
9772;DHT22;4925;52.588;13.370;2023-04-24T07:23:26;15.50;99.90
9772;DHT22;4925;52.588;13.370;2023-04-24T07:25:52;15.50;99.90
9772;DHT22;4925;52.588;13.370;2023-04-24T07:28:17;15.70;99.90
9772;DHT22;4925;52.588;13.370;2023-04-24T07:30:43;15.90;99.90
9772;DHT22;4925;52.588;13.370;2023-04-24T07:33:09;16.00;99.90
9772;DHT22;4925;52.588;13.370;2023-04-24T07:35:38;15.90;99.90
9772;DHT22;4925;52.588;13.370;2023-04-24T07:38:04;15.80;99.90
9772;DHT22;4925;52.588;13.370;2023-04-24T07:40:30;16.00;99.90
9772;DHT22;4925;52.588;13.370;2023-04-24T07:42:55;16.10;99.90
9772;DHT22;4925;52.588;13.370;2023-04-24T07:45:21;16.20;99.90
9772;DHT22;4925;52.588;13.370;2023-04-24T07:47:48;16.20;99.90
9772;DHT22;4925;52.588;13.370;2023-04-24T07:50:14;16.30;99.90
9772;DHT22;4925;52.588;13.370;2023-04-24T07:52:39;16.40;99.90
9772;DHT22;4925;52.588;13.370;2023-04-24T07:55:05;16.40;99.90
9772;DHT22;4925;52.588;13.370;2023-04-24T07:57:32;16.20;99.90
9772;DHT22;4925;52.588;13.370;2023-04-24T08:00:01;16.20;99.90
9772;DHT22;4925;52.588;13.370;2023-04-24T08:02:27;16.30;99.90
9772;DHT22;4925;52.588;13.370;2023-04-24T08:04:53;16.50;99.90
9772;DHT22;4925;52.588;13.370;2023-04-24T08:07:22;16.40;99.90
9772;DHT22;4925;52.588;13.370;2023-04-24T08:09:48;16.40;99.90
9772;DHT22;4925;52.588;13.370;2023-04-24T08:12:14;16.60;99.90
9772;DHT22;4925;52.588;13.370;2023-04-24T08:14:40;16.70;99.90
9772;DHT22;4925;52.588;13.370;2023-04-24T08:17:05;16.80;99.90
9772;DHT22;4925;52.588;13.370;2023-04-24T08:19:31;16.70;99.90
9772;DHT22;4925;52.588;13.370;2023-04-24T08:21:57;16.90;99.90
9772;DHT22;4925;52.588;13.370;2023-04-24T08:24:22;17.00;99.90
9772;DHT22;4925;52.588;13.370;2023-04-24T08:26:48;17.00;99.90
9772;DHT22;4925;52.588;13.370;2023-04-24T08:29:19;17.10;99.90
9772;DHT22;4925;52.588;13.370;2023-04-24T08:31:45;17.00;99.90
9772;DHT22;4925;52.588;13.370;2023-04-24T08:34:11;17.10;99.90
9772;DHT22;4925;52.588;13.370;2023-04-24T08:36:37;17.20;99.90
9772;DHT22;4925;52.588;13.370;2023-04-24T08:39:03;17.10;99.90
9772;DHT22;4925;52.588;13.370;2023-04-24T08:41:29;17.10;99.90
9772;DHT22;4925;52.588;13.370;2023-04-24T08:43:56;17.00;99.90
9772;DHT22;4925;52.588;13.370;2023-04-24T08:46:24;17.20;99.90
9772;DHT22;4925;52.588;13.370;2023-04-24T08:48:50;17.40;99.90
9772;DHT22;4925;52.588;13.370;2023-04-24T08:51:17;17.70;99.90
9772;DHT22;4925;52.588;13.370;2023-04-24T08:53:45;18.00;99.90
9772;DHT22;4925;52.588;13.370;2023-04-24T08:56:11;18.30;99.90
9772;DHT22;4925;52.588;13.370;2023-04-24T08:58:39;18.30;99.90
9772;DHT22;4925;52.588;13.370;2023-04-24T09:01:05;18.20;99.90
9772;DHT22;4925;52.588;13.370;2023-04-24T09:03:31;18.10;98.60
9772;DHT22;4925;52.588;13.370;2023-04-24T09:05:58;17.90;98.90
9772;DHT22;4925;52.588;13.370;2023-04-24T09:08:26;17.80;99.90
9772;DHT22;4925;52.588;13.370;2023-04-24T09:10:53;17.70;99.90
9772;DHT22;4925;52.588;13.370;2023-04-24T09:13:20;17.70;99.90
9772;DHT22;4925;52.588;13.370;2023-04-24T09:15:46;17.60;99.90
9772;DHT22;4925;52.588;13.370;2023-04-24T09:18:11;17.60;99.90
9772;DHT22;4925;52.588;13.370;2023-04-24T09:21:00;17.80;99.90
9772;DHT22;4925;52.588;13.370;2023-04-24T09:23:30;18.00;99.90
9772;DHT22;4925;52.588;13.370;2023-04-24T09:25:57;18.10;99.90
9772;DHT22;4925;52.588;13.370;2023-04-24T09:28:38;18.00;99.40
9772;DHT22;4925;52.588;13.370;2023-04-24T09:31:15;18.00;99.40
9772;DHT22;4925;52.588;13.370;2023-04-24T09:34:04;17.90;99.00
9772;DHT22;4925;52.588;13.370;2023-04-24T09:39:04;18.30;99.90
9772;DHT22;4925;52.588;13.370;2023-04-24T09:41:32;18.60;99.80
9772;DHT22;4925;52.588;13.370;2023-04-24T09:44:14;18.40;98.90
9772;DHT22;4925;52.588;13.370;2023-04-24T09:46:45;18.40;99.80
9772;DHT22;4925;52.588;13.370;2023-04-24T09:49:15;18.20;99.30
9772;DHT22;4925;52.588;13.370;2023-04-24T09:51:42;17.80;99.90
9772;DHT22;4925;52.588;13.370;2023-04-24T09:54:34;17.70;99.90
9772;DHT22;4925;52.588;13.370;2023-04-24T09:57:02;17.50;99.90
9772;DHT22;4925;52.588;13.370;2023-04-24T09:59:28;17.40;99.90
9772;DHT22;4925;52.588;13.370;2023-04-24T10:01:53;17.20;99.90
9772;DHT22;4925;52.588;13.370;2023-04-24T10:04:21;17.10;99.90
9772;DHT22;4925;52.588;13.370;2023-04-24T10:06:49;16.90;99.90
9772;DHT22;4925;52.588;13.370;2023-04-24T10:09:16;16.80;99.90
9772;DHT22;4925;52.588;13.370;2023-04-24T10:11:43;16.60;99.90
9772;DHT22;4925;52.588;13.370;2023-04-24T10:14:17;16.70;99.90
9772;DHT22;4925;52.588;13.370;2023-04-24T10:16:43;16.90;99.90
9772;DHT22;4925;52.588;13.370;2023-04-24T10:19:10;16.90;99.90
9772;DHT22;4925;52.588;13.370;2023-04-24T10:21:36;16.90;99.90
9772;DHT22;4925;52.588;13.370;2023-04-24T10:24:08;17.10;99.90
9772;DHT22;4925;52.588;13.370;2023-04-24T10:26:35;17.20;99.90
9772;DHT22;4925;52.588;13.370;2023-04-24T10:29:01;17.50;99.90
9772;DHT22;4925;52.588;13.370;2023-04-24T10:31:31;17.60;99.90
9772;DHT22;4925;52.588;13.370;2023-04-24T10:33:58;17.80;99.90
9772;DHT22;4925;52.588;13.370;2023-04-24T10:36:25;17.70;99.90
9772;DHT22;4925;52.588;13.370;2023-04-24T10:38:53;17.70;99.90
9772;DHT22;4925;52.588;13.370;2023-04-24T10:41:21;17.70;99.90
9772;DHT22;4925;52.588;13.370;2023-04-24T10:44:03;17.40;99.90
9772;DHT22;4925;52.588;13.370;2023-04-24T10:46:30;17.30;99.90
9772;DHT22;4925;52.588;13.370;2023-04-24T10:48:55;17.30;99.90
9772;DHT22;4925;52.588;13.370;2023-04-24T10:51:23;17.20;99.90
9772;DHT22;4925;52.588;13.370;2023-04-24T10:53:50;17.00;99.90
9772;DHT22;4925;52.588;13.370;2023-04-24T10:56:17;17.00;99.90
9772;DHT22;4925;52.588;13.370;2023-04-24T10:58:50;17.00;99.90
9772;DHT22;4925;52.588;13.370;2023-04-24T11:01:31;16.90;99.90
9772;DHT22;4925;52.588;13.370;2023-04-24T11:04:01;16.80;99.90
9772;DHT22;4925;52.588;13.370;2023-04-24T11:06:35;16.80;99.90
9772;DHT22;4925;52.588;13.370;2023-04-24T11:09:06;16.90;99.90
9772;DHT22;4925;52.588;13.370;2023-04-24T11:11:33;17.00;99.90
9772;DHT22;4925;52.588;13.370;2023-04-24T11:16:46;17.40;99.90
9772;DHT22;4925;52.588;13.370;2023-04-24T11:21:54;17.70;99.90
9772;DHT22;4925;52.588;13.370;2023-04-24T11:26:52;17.50;99.90
9772;DHT22;4925;52.588;13.370;2023-04-24T11:29:20;17.50;99.90
9772;DHT22;4925;52.588;13.370;2023-04-24T11:31:47;17.60;99.90
9772;DHT22;4925;52.588;13.370;2023-04-24T11:34:15;17.60;99.90
9772;DHT22;4925;52.588;13.370;2023-04-24T11:36:46;17.20;99.90
9772;DHT22;4925;52.588;13.370;2023-04-24T11:39:12;16.70;99.90
9772;DHT22;4925;52.588;13.370;2023-04-24T11:41:38;16.50;99.90
9772;DHT22;4925;52.588;13.370;2023-04-24T11:44:06;16.30;99.90
9772;DHT22;4925;52.588;13.370;2023-04-24T11:46:32;16.20;99.90
9772;DHT22;4925;52.588;13.370;2023-04-24T11:48:58;16.20;99.90
9772;DHT22;4925;52.588;13.370;2023-04-24T11:51:26;16.30;99.90
9772;DHT22;4925;52.588;13.370;2023-04-24T11:53:55;16.30;99.90
9772;DHT22;4925;52.588;13.370;2023-04-24T11:56:23;16.20;99.90
9772;DHT22;4925;52.588;13.370;2023-04-24T11:58:51;16.30;99.90
9772;DHT22;4925;52.588;13.370;2023-04-24T12:01:17;16.40;99.90
9772;DHT22;4925;52.588;13.370;2023-04-24T12:03:47;16.60;99.90
9772;DHT22;4925;52.588;13.370;2023-04-24T12:06:13;17.10;99.90
9772;DHT22;4925;52.588;13.370;2023-04-24T12:08:39;17.60;99.90
9772;DHT22;4925;52.588;13.370;2023-04-24T12:11:06;18.10;99.90
9772;DHT22;4925;52.588;13.370;2023-04-24T12:13:35;18.60;99.90
9772;DHT22;4925;52.588;13.370;2023-04-24T12:16:03;19.20;99.90
9772;DHT22;4925;52.588;13.370;2023-04-24T12:18:30;19.70;99.90
9772;DHT22;4925;52.588;13.370;2023-04-24T12:21:14;19.50;99.90
9772;DHT22;4925;52.588;13.370;2023-04-24T12:23:43;20.10;99.90
9772;DHT22;4925;52.588;13.370;2023-04-24T12:26:09;20.40;99.90
9772;DHT22;4925;52.588;13.370;2023-04-24T12:28:38;20.30;99.90
9772;DHT22;4925;52.588;13.370;2023-04-24T12:31:04;19.90;99.90
9772;DHT22;4925;52.588;13.370;2023-04-24T12:33:33;19.80;99.90
9772;DHT22;4925;52.588;13.370;2023-04-24T12:36:00;19.90;99.90
9772;DHT22;4925;52.588;13.370;2023-04-24T12:38:29;19.50;99.90
9772;DHT22;4925;52.588;13.370;2023-04-24T12:41:22;19.40;99.90
9772;DHT22;4925;52.588;13.370;2023-04-24T12:43:52;18.90;99.90
9772;DHT22;4925;52.588;13.370;2023-04-24T12:46:18;18.50;99.90
9772;DHT22;4925;52.588;13.370;2023-04-24T12:48:44;18.10;99.90
9772;DHT22;4925;52.588;13.370;2023-04-24T12:51:10;18.00;99.90
9772;DHT22;4925;52.588;13.370;2023-04-24T12:53:36;17.80;99.90
9772;DHT22;4925;52.588;13.370;2023-04-24T12:56:01;17.50;99.90
9772;DHT22;4925;52.588;13.370;2023-04-24T12:58:27;17.10;99.90
9772;DHT22;4925;52.588;13.370;2023-04-24T13:00:53;17.00;99.90
9772;DHT22;4925;52.588;13.370;2023-04-24T13:03:19;16.90;99.90
9772;DHT22;4925;52.588;13.370;2023-04-24T13:05:45;16.90;99.90
9772;DHT22;4925;52.588;13.370;2023-04-24T13:08:10;16.90;99.90
9772;DHT22;4925;52.588;13.370;2023-04-24T13:10:38;16.80;99.90
9772;DHT22;4925;52.588;13.370;2023-04-24T13:13:04;17.00;99.90
9772;DHT22;4925;52.588;13.370;2023-04-24T13:15:30;17.20;99.90
9772;DHT22;4925;52.588;13.370;2023-04-24T13:17:56;17.30;99.90
9772;DHT22;4925;52.588;13.370;2023-04-24T13:20:21;17.30;99.90
9772;DHT22;4925;52.588;13.370;2023-04-24T13:22:47;17.20;99.90
9772;DHT22;4925;52.588;13.370;2023-04-24T13:25:13;17.20;99.90
9772;DHT22;4925;52.588;13.370;2023-04-24T13:27:42;17.60;99.90
9772;DHT22;4925;52.588;13.370;2023-04-24T13:30:08;17.90;99.90
9772;DHT22;4925;52.588;13.370;2023-04-24T13:32:34;18.10;99.90
9772;DHT22;4925;52.588;13.370;2023-04-24T13:35:00;18.20;99.90
9772;DHT22;4925;52.588;13.370;2023-04-24T13:37:26;18.60;99.90
9772;DHT22;4925;52.588;13.370;2023-04-24T13:39:52;19.10;99.90
9772;DHT22;4925;52.588;13.370;2023-04-24T13:42:17;19.40;99.80
9772;DHT22;4925;52.588;13.370;2023-04-24T13:44:44;18.90;99.90
9772;DHT22;4925;52.588;13.370;2023-04-24T13:47:09;19.10;99.90
9772;DHT22;4925;52.588;13.370;2023-04-24T13:49:35;19.30;99.90
9772;DHT22;4925;52.588;13.370;2023-04-24T13:52:02;19.50;98.50
9772;DHT22;4925;52.588;13.370;2023-04-24T13:54:27;19.80;96.30
9772;DHT22;4925;52.588;13.370;2023-04-24T13:56:53;19.50;92.20
9772;DHT22;4925;52.588;13.370;2023-04-24T13:59:20;19.10;92.50
9772;DHT22;4925;52.588;13.370;2023-04-24T14:01:46;18.80;92.80
9772;DHT22;4925;52.588;13.370;2023-04-24T14:04:12;18.40;94.60
9772;DHT22;4925;52.588;13.370;2023-04-24T14:06:38;18.30;96.60
9772;DHT22;4925;52.588;13.370;2023-04-24T14:09:04;18.10;96.50
9772;DHT22;4925;52.588;13.370;2023-04-24T14:11:29;18.00;97.10
9772;DHT22;4925;52.588;13.370;2023-04-24T14:13:55;17.80;95.10
9772;DHT22;4925;52.588;13.370;2023-04-24T14:16:24;17.90;93.20
9772;DHT22;4925;52.588;13.370;2023-04-24T14:18:50;17.90;92.20
9772;DHT22;4925;52.588;13.370;2023-04-24T14:21:16;17.90;92.40
9772;DHT22;4925;52.588;13.370;2023-04-24T14:23:41;17.70;91.50
9772;DHT22;4925;52.588;13.370;2023-04-24T14:26:07;17.80;92.20
9772;DHT22;4925;52.588;13.370;2023-04-24T14:28:33;17.90;92.50
9772;DHT22;4925;52.588;13.370;2023-04-24T14:30:59;18.20;90.20
9772;DHT22;4925;52.588;13.370;2023-04-24T14:33:25;18.40;88.60
9772;DHT22;4925;52.588;13.370;2023-04-24T14:35:51;18.60;88.30
9772;DHT22;4925;52.588;13.370;2023-04-24T14:38:17;18.90;84.30
9772;DHT22;4925;52.588;13.370;2023-04-24T14:40:43;18.90;78.60
9772;DHT22;4925;52.588;13.370;2023-04-24T14:43:08;18.70;75.30
9772;DHT22;4925;52.588;13.370;2023-04-24T14:45:34;18.40;75.80
9772;DHT22;4925;52.588;13.370;2023-04-24T14:48:00;18.20;76.80
9772;DHT22;4925;52.588;13.370;2023-04-24T14:50:26;18.40;77.70
9772;DHT22;4925;52.588;13.370;2023-04-24T14:52:55;18.40;77.00
9772;DHT22;4925;52.588;13.370;2023-04-24T14:55:25;18.50;76.90
9772;DHT22;4925;52.588;13.370;2023-04-24T14:57:51;18.30;75.40
9772;DHT22;4925;52.588;13.370;2023-04-24T15:00:18;18.20;74.00
9772;DHT22;4925;52.588;13.370;2023-04-24T15:02:44;18.00;72.10
9772;DHT22;4925;52.588;13.370;2023-04-24T15:05:10;17.90;73.80
9772;DHT22;4925;52.588;13.370;2023-04-24T15:07:36;17.80;75.00
9772;DHT22;4925;52.588;13.370;2023-04-24T15:10:03;17.90;76.70
9772;DHT22;4925;52.588;13.370;2023-04-24T15:12:29;18.00;75.10
9772;DHT22;4925;52.588;13.370;2023-04-24T15:14:55;17.70;75.60
9772;DHT22;4925;52.588;13.370;2023-04-24T15:17:20;17.50;77.00
9772;DHT22;4925;52.588;13.370;2023-04-24T15:19:46;17.40;77.80
9772;DHT22;4925;52.588;13.370;2023-04-24T15:22:12;17.30;79.70
9772;DHT22;4925;52.588;13.370;2023-04-24T15:24:38;17.20;78.80
9772;DHT22;4925;52.588;13.370;2023-04-24T15:27:04;17.40;80.10
9772;DHT22;4925;52.588;13.370;2023-04-24T15:29:30;17.50;78.90
9772;DHT22;4925;52.588;13.370;2023-04-24T15:31:55;17.40;77.50
9772;DHT22;4925;52.588;13.370;2023-04-24T15:34:21;17.30;77.40
9772;DHT22;4925;52.588;13.370;2023-04-24T15:36:47;17.30;77.70
9772;DHT22;4925;52.588;13.370;2023-04-24T15:39:12;17.10;77.90
9772;DHT22;4925;52.588;13.370;2023-04-24T15:41:38;17.00;79.20
9772;DHT22;4925;52.588;13.370;2023-04-24T15:44:04;17.00;82.90
9772;DHT22;4925;52.588;13.370;2023-04-24T15:46:29;16.80;81.80
9772;DHT22;4925;52.588;13.370;2023-04-24T15:48:55;16.90;81.90
9772;DHT22;4925;52.588;13.370;2023-04-24T15:51:21;16.60;82.60
9772;DHT22;4925;52.588;13.370;2023-04-24T15:53:46;16.50;83.00
9772;DHT22;4925;52.588;13.370;2023-04-24T15:56:12;16.60;84.30